首页
METAR-TAF:

METAR-TAF

机场 :

Norman Wells, 西北特區, 加拿大

纬度: 65-17N, 经度: 126-48W, 海拔: 67米

当前天气观测

该预报发布于1小时和16分钟前的06:00 UTC
风速3节,风向西
温度 -28°C
湿度 75%
气压 1024 hPa
能見度: 48.3公里
少量云层高于3500英尺
多云层高于6900英尺
小雪

METAR: CYVQ 290600Z 26003KT 30SM -SN FEW035 BKN069 M28/M31 A3024 RMK SC1AC6 SC TR SLP255

时间: 00:16 (07:16 UTC)

预报

该预报发布于1小时和38分钟前的05:38 UTC
预报有效从29日的 06点(UTC)到 29日的 18点(UTC)
风速3节,风向多变
能見度: 10公里
少量云层高于3000英尺
多云层高于8000英尺
短暂存在
从 29日的 06点(UTC)到 29日的 08点(UTC)
能見度: 10公里
多云层高于6000英尺
小雪
从 29日的 0800点(UTC)
风速3节,风向多变
能見度: 10公里
散云层高于8000英尺
短暂存在
从 29日的 08点(UTC)到 29日的 10点(UTC)
能見度: 10公里
多云层高于6000英尺
小雪

TAF: CYVQ 290538Z 2906/2918 VRB03KT P6SM FEW030 BKN080 TEMPO 2906/2908 P6SM -SN BKN060 FM290800 VRB03KT P6SM SCT080 TEMPO 2908/2910 P6SM -SN BKN060 RMK NXT FCST BY 291200Z

超过4000个机场的气象观测和天气预报(METAR&TAF报告)。

可查询的气象台以黄色和红色小点在地图上表示。

将鼠标移到小点上方,可查看气象台名称。

然后点击查看天气观测和预报。

如需切换地图:点击带黑十字的绿色按钮放大地图;点击带横线的绿色按钮缩小地图;或者点击绿色箭头查看邻近地区的地图。


METAR-TAF: